sensor_id;sensor_type;location;lat;lon;timestamp;P1;durP1;ratioP1;P2;durP2;ratioP2
53519;SDS011;39397;53.204;5.778;2023-06-10T00:00:34;9.30;;;4.97;;
53519;SDS011;39397;53.204;5.778;2023-06-10T00:03:00;9.75;;;4.72;;
53519;SDS011;39397;53.204;5.778;2023-06-10T00:05:26;6.47;;;3.85;;
53519;SDS011;39397;53.204;5.778;2023-06-10T00:07:55;8.55;;;4.75;;
53519;SDS011;39397;53.204;5.778;2023-06-10T00:10:21;9.35;;;4.70;;
53519;SDS011;39397;53.204;5.778;2023-06-10T00:12:48;8.27;;;4.32;;
53519;SDS011;39397;53.204;5.778;2023-06-10T00:15:13;7.80;;;4.20;;
53519;SDS011;39397;53.204;5.778;2023-06-10T00:17:39;10.88;;;4.30;;
53519;SDS011;39397;53.204;5.778;2023-06-10T00:20:09;8.88;;;4.80;;
53519;SDS011;39397;53.204;5.778;2023-06-10T00:22:38;7.28;;;4.10;;
53519;SDS011;39397;53.204;5.778;2023-06-10T00:25:07;8.43;;;4.25;;
53519;SDS011;39397;53.204;5.778;2023-06-10T00:27:34;9.10;;;4.30;;
53519;SDS011;39397;53.204;5.778;2023-06-10T00:30:04;8.98;;;4.35;;
53519;SDS011;39397;53.204;5.778;2023-06-10T00:32:35;9.18;;;4.18;;
53519;SDS011;39397;53.204;5.778;2023-06-10T00:35:01;8.20;;;4.88;;
53519;SDS011;39397;53.204;5.778;2023-06-10T00:37:28;10.60;;;4.68;;
53519;SDS011;39397;53.204;5.778;2023-06-10T00:39:54;8.82;;;4.10;;
53519;SDS011;39397;53.204;5.778;2023-06-10T00:42:20;8.90;;;4.57;;
53519;SDS011;39397;53.204;5.778;2023-06-10T00:44:49;11.15;;;5.15;;
53519;SDS011;39397;53.204;5.778;2023-06-10T00:47:16;8.75;;;4.18;;
53519;SDS011;39397;53.204;5.778;2023-06-10T00:49:42;12.73;;;4.97;;
53519;SDS011;39397;53.204;5.778;2023-06-10T00:52:09;9.48;;;4.32;;
53519;SDS011;39397;53.204;5.778;2023-06-10T00:54:36;8.77;;;4.28;;
53519;SDS011;39397;53.204;5.778;2023-06-10T00:57:03;10.07;;;4.63;;
53519;SDS011;39397;53.204;5.778;2023-06-10T00:59:30;8.93;;;4.53;;
53519;SDS011;39397;53.204;5.778;2023-06-10T01:01:57;10.00;;;4.70;;
53519;SDS011;39397;53.204;5.778;2023-06-10T01:04:23;9.75;;;4.80;;
53519;SDS011;39397;53.204;5.778;2023-06-10T01:07:10;9.35;;;5.43;;
53519;SDS011;39397;53.204;5.778;2023-06-10T01:12:36;7.38;;;4.38;;
53519;SDS011;39397;53.204;5.778;2023-06-10T01:15:12;9.85;;;4.45;;
53519;SDS011;39397;53.204;5.778;2023-06-10T01:17:59;7.22;;;4.22;;
53519;SDS011;39397;53.204;5.778;2023-06-10T01:20:26;9.40;;;5.05;;
53519;SDS011;39397;53.204;5.778;2023-06-10T01:22:56;7.50;;;4.32;;
53519;SDS011;39397;53.204;5.778;2023-06-10T01:25:24;8.50;;;4.70;;
53519;SDS011;39397;53.204;5.778;2023-06-10T01:28:38;10.65;;;4.93;;
53519;SDS011;39397;53.204;5.778;2023-06-10T01:33:17;9.35;;;4.68;;
53519;SDS011;39397;53.204;5.778;2023-06-10T01:35:59;8.40;;;4.82;;
53519;SDS011;39397;53.204;5.778;2023-06-10T01:38:27;10.10;;;4.47;;
53519;SDS011;39397;53.204;5.778;2023-06-10T01:40:58;9.85;;;4.53;;
53519;SDS011;39397;53.204;5.778;2023-06-10T01:43:25;9.77;;;5.75;;
53519;SDS011;39397;53.204;5.778;2023-06-10T01:45:51;9.38;;;5.00;;
53519;SDS011;39397;53.204;5.778;2023-06-10T01:48:17;10.93;;;5.40;;
53519;SDS011;39397;53.204;5.778;2023-06-10T01:50:45;8.13;;;4.65;;
53519;SDS011;39397;53.204;5.778;2023-06-10T01:53:11;8.73;;;4.85;;
53519;SDS011;39397;53.204;5.778;2023-06-10T01:55:36;8.05;;;4.57;;
53519;SDS011;39397;53.204;5.778;2023-06-10T01:58:02;10.40;;;4.85;;
53519;SDS011;39397;53.204;5.778;2023-06-10T02:00:28;9.75;;;4.57;;
53519;SDS011;39397;53.204;5.778;2023-06-10T02:02:53;8.52;;;4.97;;
53519;SDS011;39397;53.204;5.778;2023-06-10T02:05:19;7.93;;;4.43;;
53519;SDS011;39397;53.204;5.778;2023-06-10T02:07:45;7.18;;;4.15;;
53519;SDS011;39397;53.204;5.778;2023-06-10T02:10:13;9.10;;;5.15;;
53519;SDS011;39397;53.204;5.778;2023-06-10T02:12:39;8.05;;;4.68;;
53519;SDS011;39397;53.204;5.778;2023-06-10T02:15:05;6.90;;;4.93;;
53519;SDS011;39397;53.204;5.778;2023-06-10T02:17:31;9.10;;;5.18;;
53519;SDS011;39397;53.204;5.778;2023-06-10T02:19:57;9.10;;;5.10;;
53519;SDS011;39397;53.204;5.778;2023-06-10T02:22:24;9.02;;;5.18;;
53519;SDS011;39397;53.204;5.778;2023-06-10T02:24:50;11.13;;;4.93;;
53519;SDS011;39397;53.204;5.778;2023-06-10T02:27:16;9.75;;;5.40;;
53519;SDS011;39397;53.204;5.778;2023-06-10T02:29:43;11.57;;;5.45;;
53519;SDS011;39397;53.204;5.778;2023-06-10T02:32:09;11.23;;;5.35;;
53519;SDS011;39397;53.204;5.778;2023-06-10T02:34:35;11.07;;;5.68;;
53519;SDS011;39397;53.204;5.778;2023-06-10T02:37:03;9.77;;;6.03;;
53519;SDS011;39397;53.204;5.778;2023-06-10T02:39:32;9.57;;;4.82;;
53519;SDS011;39397;53.204;5.778;2023-06-10T02:41:58;10.73;;;5.45;;
53519;SDS011;39397;53.204;5.778;2023-06-10T02:44:23;10.45;;;5.25;;
53519;SDS011;39397;53.204;5.778;2023-06-10T02:46:49;7.78;;;5.05;;
53519;SDS011;39397;53.204;5.778;2023-06-10T02:49:15;8.38;;;4.95;;
53519;SDS011;39397;53.204;5.778;2023-06-10T02:51:41;14.88;;;5.85;;
53519;SDS011;39397;53.204;5.778;2023-06-10T02:54:07;10.00;;;5.72;;
53519;SDS011;39397;53.204;5.778;2023-06-10T02:56:32;10.10;;;5.20;;
53519;SDS011;39397;53.204;5.778;2023-06-10T02:58:59;9.25;;;5.45;;
53519;SDS011;39397;53.204;5.778;2023-06-10T03:01:25;13.10;;;6.30;;
53519;SDS011;39397;53.204;5.778;2023-06-10T03:03:51;10.13;;;5.47;;
53519;SDS011;39397;53.204;5.778;2023-06-10T03:06:17;7.28;;;4.57;;
53519;SDS011;39397;53.204;5.778;2023-06-10T03:08:43;8.98;;;5.32;;
53519;SDS011;39397;53.204;5.778;2023-06-10T03:11:10;9.30;;;5.45;;
53519;SDS011;39397;53.204;5.778;2023-06-10T03:13:38;13.38;;;5.85;;
53519;SDS011;39397;53.204;5.778;2023-06-10T03:16:04;10.95;;;5.38;;
53519;SDS011;39397;53.204;5.778;2023-06-10T03:18:33;11.15;;;5.40;;
53519;SDS011;39397;53.204;5.778;2023-06-10T03:20:58;13.60;;;5.75;;
53519;SDS011;39397;53.204;5.778;2023-06-10T03:23:25;9.57;;;5.88;;
53519;SDS011;39397;53.204;5.778;2023-06-10T03:25:52;10.35;;;5.80;;
53519;SDS011;39397;53.204;5.778;2023-06-10T03:28:19;11.13;;;6.10;;
53519;SDS011;39397;53.204;5.778;2023-06-10T03:30:46;9.00;;;5.35;;
53519;SDS011;39397;53.204;5.778;2023-06-10T03:33:12;10.73;;;5.35;;
53519;SDS011;39397;53.204;5.778;2023-06-10T03:35:39;12.10;;;5.38;;
53519;SDS011;39397;53.204;5.778;2023-06-10T03:38:05;9.25;;;5.40;;
53519;SDS011;39397;53.204;5.778;2023-06-10T03:40:31;9.68;;;5.70;;
53519;SDS011;39397;53.204;5.778;2023-06-10T03:42:57;11.88;;;5.53;;
53519;SDS011;39397;53.204;5.778;2023-06-10T03:45:23;9.30;;;5.20;;
53519;SDS011;39397;53.204;5.778;2023-06-10T03:47:49;11.02;;;5.50;;
53519;SDS011;39397;53.204;5.778;2023-06-10T03:50:15;10.75;;;5.63;;
53519;SDS011;39397;53.204;5.778;2023-06-10T03:52:41;10.85;;;5.10;;
53519;SDS011;39397;53.204;5.778;2023-06-10T03:55:07;8.20;;;4.95;;
53519;SDS011;39397;53.204;5.778;2023-06-10T03:57:33;14.82;;;5.60;;
53519;SDS011;39397;53.204;5.778;2023-06-10T03:59:58;9.57;;;5.50;;
53519;SDS011;39397;53.204;5.778;2023-06-10T04:02:24;9.40;;;5.28;;
53519;SDS011;39397;53.204;5.778;2023-06-10T04:04:50;9.15;;;5.57;;
53519;SDS011;39397;53.204;5.778;2023-06-10T04:07:16;11.73;;;5.25;;
53519;SDS011;39397;53.204;5.778;2023-06-10T04:09:44;8.40;;;5.20;;
53519;SDS011;39397;53.204;5.778;2023-06-10T04:12:09;10.20;;;5.13;;
53519;SDS011;39397;53.204;5.778;2023-06-10T04:14:35;10.25;;;5.22;;
53519;SDS011;39397;53.204;5.778;2023-06-10T04:17:02;12.00;;;5.30;;
53519;SDS011;39397;53.204;5.778;2023-06-10T04:19:31;11.35;;;5.15;;
53519;SDS011;39397;53.204;5.778;2023-06-10T04:21:57;10.38;;;4.93;;
53519;SDS011;39397;53.204;5.778;2023-06-10T04:24:25;10.65;;;5.22;;
53519;SDS011;39397;53.204;5.778;2023-06-10T04:26:51;8.77;;;5.25;;
53519;SDS011;39397;53.204;5.778;2023-06-10T04:29:17;9.88;;;5.05;;
53519;SDS011;39397;53.204;5.778;2023-06-10T04:31:42;10.15;;;4.50;;
53519;SDS011;39397;53.204;5.778;2023-06-10T04:34:08;11.30;;;5.22;;
53519;SDS011;39397;53.204;5.778;2023-06-10T04:36:34;10.82;;;5.10;;
53519;SDS011;39397;53.204;5.778;2023-06-10T04:39:00;13.20;;;5.47;;
53519;SDS011;39397;53.204;5.778;2023-06-10T04:41:26;9.00;;;4.53;;
53519;SDS011;39397;53.204;5.778;2023-06-10T04:43:52;8.07;;;4.45;;
53519;SDS011;39397;53.204;5.778;2023-06-10T04:46:18;9.13;;;4.72;;
53519;SDS011;39397;53.204;5.778;2023-06-10T04:48:44;9.95;;;4.95;;
53519;SDS011;39397;53.204;5.778;2023-06-10T04:51:12;8.90;;;4.78;;
53519;SDS011;39397;53.204;5.778;2023-06-10T04:53:38;9.45;;;4.75;;
53519;SDS011;39397;53.204;5.778;2023-06-10T04:56:04;10.80;;;4.80;;
53519;SDS011;39397;53.204;5.778;2023-06-10T04:58:30;12.65;;;5.28;;
53519;SDS011;39397;53.204;5.778;2023-06-10T05:00:55;13.70;;;4.68;;
53519;SDS011;39397;53.204;5.778;2023-06-10T05:03:21;7.88;;;4.65;;
53519;SDS011;39397;53.204;5.778;2023-06-10T05:05:47;9.50;;;5.32;;
53519;SDS011;39397;53.204;5.778;2023-06-10T05:08:12;10.93;;;5.32;;
53519;SDS011;39397;53.204;5.778;2023-06-10T05:10:38;9.80;;;4.80;;
53519;SDS011;39397;53.204;5.778;2023-06-10T05:13:04;10.13;;;5.63;;
53519;SDS011;39397;53.204;5.778;2023-06-10T05:15:30;9.38;;;5.40;;
53519;SDS011;39397;53.204;5.778;2023-06-10T05:17:59;11.00;;;5.35;;
53519;SDS011;39397;53.204;5.778;2023-06-10T05:20:25;11.05;;;5.07;;
53519;SDS011;39397;53.204;5.778;2023-06-10T05:22:51;8.70;;;4.72;;
53519;SDS011;39397;53.204;5.778;2023-06-10T05:25:17;10.48;;;4.47;;
53519;SDS011;39397;53.204;5.778;2023-06-10T05:27:43;9.77;;;4.60;;
53519;SDS011;39397;53.204;5.778;2023-06-10T05:30:10;11.18;;;5.53;;
53519;SDS011;39397;53.204;5.778;2023-06-10T05:32:36;10.18;;;5.05;;
53519;SDS011;39397;53.204;5.778;2023-06-10T05:35:02;9.10;;;4.82;;
53519;SDS011;39397;53.204;5.778;2023-06-10T05:37:28;8.98;;;4.70;;
53519;SDS011;39397;53.204;5.778;2023-06-10T05:39:54;11.55;;;4.50;;
53519;SDS011;39397;53.204;5.778;2023-06-10T05:42:20;8.35;;;4.70;;
53519;SDS011;39397;53.204;5.778;2023-06-10T05:44:46;8.68;;;4.95;;
53519;SDS011;39397;53.204;5.778;2023-06-10T05:47:11;10.77;;;5.00;;
53519;SDS011;39397;53.204;5.778;2023-06-10T05:49:37;9.48;;;4.45;;
53519;SDS011;39397;53.204;5.778;2023-06-10T05:52:03;10.32;;;4.70;;
53519;SDS011;39397;53.204;5.778;2023-06-10T05:54:29;9.68;;;4.82;;
53519;SDS011;39397;53.204;5.778;2023-06-10T05:56:54;9.13;;;5.05;;
53519;SDS011;39397;53.204;5.778;2023-06-10T05:59:20;12.57;;;6.10;;
53519;SDS011;39397;53.204;5.778;2023-06-10T06:01:48;9.57;;;4.68;;
53519;SDS011;39397;53.204;5.778;2023-06-10T06:04:14;9.20;;;4.57;;
53519;SDS011;39397;53.204;5.778;2023-06-10T06:06:40;10.20;;;4.78;;
53519;SDS011;39397;53.204;5.778;2023-06-10T06:09:06;9.68;;;4.35;;
53519;SDS011;39397;53.204;5.778;2023-06-10T06:11:33;7.20;;;4.22;;
53519;SDS011;39397;53.204;5.778;2023-06-10T06:13:59;7.80;;;4.72;;
53519;SDS011;39397;53.204;5.778;2023-06-10T06:16:25;11.65;;;4.75;;
53519;SDS011;39397;53.204;5.778;2023-06-10T06:18:51;9.68;;;5.05;;
53519;SDS011;39397;53.204;5.778;2023-06-10T06:21:16;9.45;;;4.45;;
53519;SDS011;39397;53.204;5.778;2023-06-10T06:23:42;8.68;;;4.57;;
53519;SDS011;39397;53.204;5.778;2023-06-10T06:26:08;9.13;;;4.93;;
53519;SDS011;39397;53.204;5.778;2023-06-10T06:28:33;7.82;;;4.40;;
53519;SDS011;39397;53.204;5.778;2023-06-10T06:30:59;8.63;;;4.43;;
53519;SDS011;39397;53.204;5.778;2023-06-10T06:33:25;11.82;;;4.68;;
53519;SDS011;39397;53.204;5.778;2023-06-10T06:35:51;7.53;;;4.57;;
53519;SDS011;39397;53.204;5.778;2023-06-10T06:38:17;8.40;;;4.30;;
53519;SDS011;39397;53.204;5.778;2023-06-10T06:40:43;9.13;;;4.50;;
53519;SDS011;39397;53.204;5.778;2023-06-10T06:43:09;7.15;;;4.10;;
53519;SDS011;39397;53.204;5.778;2023-06-10T06:45:37;9.38;;;4.30;;
53519;SDS011;39397;53.204;5.778;2023-06-10T06:48:03;8.43;;;4.00;;
53519;SDS011;39397;53.204;5.778;2023-06-10T06:50:30;11.13;;;4.18;;
53519;SDS011;39397;53.204;5.778;2023-06-10T06:52:56;7.53;;;3.72;;
53519;SDS011;39397;53.204;5.778;2023-06-10T06:55:21;9.85;;;4.38;;
53519;SDS011;39397;53.204;5.778;2023-06-10T06:57:47;9.60;;;4.43;;
53519;SDS011;39397;53.204;5.778;2023-06-10T07:00:13;9.40;;;4.30;;
53519;SDS011;39397;53.204;5.778;2023-06-10T07:02:39;9.18;;;4.20;;
53519;SDS011;39397;53.204;5.778;2023-06-10T07:05:05;8.65;;;4.22;;
53519;SDS011;39397;53.204;5.778;2023-06-10T07:07:31;8.07;;;3.90;;
53519;SDS011;39397;53.204;5.778;2023-06-10T07:09:57;9.13;;;4.60;;
53519;SDS011;39397;53.204;5.778;2023-06-10T07:12:22;9.25;;;4.15;;
53519;SDS011;39397;53.204;5.778;2023-06-10T07:14:49;10.85;;;4.90;;
53519;SDS011;39397;53.204;5.778;2023-06-10T07:17:16;8.95;;;4.35;;
53519;SDS011;39397;53.204;5.778;2023-06-10T07:19:43;7.30;;;3.75;;
53519;SDS011;39397;53.204;5.778;2023-06-10T07:22:12;8.30;;;4.70;;
53519;SDS011;39397;53.204;5.778;2023-06-10T07:24:40;9.00;;;3.97;;
53519;SDS011;39397;53.204;5.778;2023-06-10T07:27:06;9.35;;;3.80;;
53519;SDS011;39397;53.204;5.778;2023-06-10T07:29:32;8.93;;;3.78;;
53519;SDS011;39397;53.204;5.778;2023-06-10T07:31:58;8.05;;;4.00;;
53519;SDS011;39397;53.204;5.778;2023-06-10T07:34:24;7.75;;;4.18;;
53519;SDS011;39397;53.204;5.778;2023-06-10T07:36:49;7.10;;;3.65;;
53519;SDS011;39397;53.204;5.778;2023-06-10T07:39:15;9.15;;;4.32;;
53519;SDS011;39397;53.204;5.778;2023-06-10T07:41:41;9.15;;;4.03;;
53519;SDS011;39397;53.204;5.778;2023-06-10T07:44:06;7.70;;;4.05;;
53519;SDS011;39397;53.204;5.778;2023-06-10T07:46:35;10.35;;;4.60;;
53519;SDS011;39397;53.204;5.778;2023-06-10T07:49:00;8.35;;;4.32;;
53519;SDS011;39397;53.204;5.778;2023-06-10T07:51:27;7.13;;;3.80;;
53519;SDS011;39397;53.204;5.778;2023-06-10T07:53:52;6.75;;;3.80;;
53519;SDS011;39397;53.204;5.778;2023-06-10T07:56:18;7.93;;;3.70;;
53519;SDS011;39397;53.204;5.778;2023-06-10T07:58:45;10.25;;;4.57;;
53519;SDS011;39397;53.204;5.778;2023-06-10T08:01:11;9.82;;;3.83;;
53519;SDS011;39397;53.204;5.778;2023-06-10T08:03:37;8.45;;;4.15;;
53519;SDS011;39397;53.204;5.778;2023-06-10T08:06:02;9.15;;;4.43;;
53519;SDS011;39397;53.204;5.778;2023-06-10T08:08:28;11.55;;;4.13;;
53519;SDS011;39397;53.204;5.778;2023-06-10T08:10:54;8.40;;;3.60;;
53519;SDS011;39397;53.204;5.778;2023-06-10T08:13:20;10.32;;;4.28;;
53519;SDS011;39397;53.204;5.778;2023-06-10T08:15:45;9.77;;;3.25;;
53519;SDS011;39397;53.204;5.778;2023-06-10T08:18:13;9.77;;;3.50;;
53519;SDS011;39397;53.204;5.778;2023-06-10T08:20:38;8.38;;;3.60;;
53519;SDS011;39397;53.204;5.778;2023-06-10T08:23:04;7.63;;;3.42;;
53519;SDS011;39397;53.204;5.778;2023-06-10T08:25:30;8.65;;;3.38;;
53519;SDS011;39397;53.204;5.778;2023-06-10T08:27:55;7.95;;;3.33;;
53519;SDS011;39397;53.204;5.778;2023-06-10T08:30:22;8.10;;;3.53;;
53519;SDS011;39397;53.204;5.778;2023-06-10T08:32:48;8.00;;;3.20;;
53519;SDS011;39397;53.204;5.778;2023-06-10T08:35:14;8.75;;;3.33;;
53519;SDS011;39397;53.204;5.778;2023-06-10T08:37:40;6.82;;;3.40;;
53519;SDS011;39397;53.204;5.778;2023-06-10T08:40:06;7.18;;;3.47;;
53519;SDS011;39397;53.204;5.778;2023-06-10T08:42:33;8.80;;;3.50;;
53519;SDS011;39397;53.204;5.778;2023-06-10T08:45:05;9.00;;;3.75;;
53519;SDS011;39397;53.204;5.778;2023-06-10T08:47:37;7.75;;;3.50;;
53519;SDS011;39397;53.204;5.778;2023-06-10T08:50:06;6.25;;;3.60;;
53519;SDS011;39397;53.204;5.778;2023-06-10T08:52:36;8.85;;;3.40;;
53519;SDS011;39397;53.204;5.778;2023-06-10T08:55:03;5.00;;;2.78;;
53519;SDS011;39397;53.204;5.778;2023-06-10T08:57:35;6.88;;;3.40;;
53519;SDS011;39397;53.204;5.778;2023-06-10T09:00:02;6.40;;;2.90;;
53519;SDS011;39397;53.204;5.778;2023-06-10T09:02:28;5.53;;;3.22;;
53519;SDS011;39397;53.204;5.778;2023-06-10T09:04:56;6.50;;;3.10;;
53519;SDS011;39397;53.204;5.778;2023-06-10T09:07:22;7.10;;;3.35;;
53519;SDS011;39397;53.204;5.778;2023-06-10T09:09:48;9.15;;;2.95;;
53519;SDS011;39397;53.204;5.778;2023-06-10T09:12:14;10.07;;;3.03;;
53519;SDS011;39397;53.204;5.778;2023-06-10T09:14:41;9.77;;;3.53;;
53519;SDS011;39397;53.204;5.778;2023-06-10T09:17:07;6.55;;;3.45;;
53519;SDS011;39397;53.204;5.778;2023-06-10T09:19:33;6.97;;;3.00;;
53519;SDS011;39397;53.204;5.778;2023-06-10T09:22:01;5.57;;;3.53;;
53519;SDS011;39397;53.204;5.778;2023-06-10T09:24:27;6.65;;;3.60;;
53519;SDS011;39397;53.204;5.778;2023-06-10T09:27:06;8.20;;;3.28;;
53519;SDS011;39397;53.204;5.778;2023-06-10T09:29:52;6.57;;;3.28;;
53519;SDS011;39397;53.204;5.778;2023-06-10T09:32:20;8.15;;;3.00;;
53519;SDS011;39397;53.204;5.778;2023-06-10T09:34:47;6.72;;;3.28;;
53519;SDS011;39397;53.204;5.778;2023-06-10T09:37:13;9.07;;;3.92;;
53519;SDS011;39397;53.204;5.778;2023-06-10T09:40:06;5.72;;;2.70;;
53519;SDS011;39397;53.204;5.778;2023-06-10T09:42:33;8.30;;;3.08;;
53519;SDS011;39397;53.204;5.778;2023-06-10T09:45:01;6.78;;;3.50;;
53519;SDS011;39397;53.204;5.778;2023-06-10T09:47:30;7.25;;;3.33;;
53519;SDS011;39397;53.204;5.778;2023-06-10T09:49:56;7.38;;;2.97;;
53519;SDS011;39397;53.204;5.778;2023-06-10T09:52:22;6.78;;;3.53;;
53519;SDS011;39397;53.204;5.778;2023-06-10T09:54:52;5.47;;;3.60;;
53519;SDS011;39397;53.204;5.778;2023-06-10T09:57:19;6.78;;;3.08;;
53519;SDS011;39397;53.204;5.778;2023-06-10T09:59:46;6.13;;;3.30;;
53519;SDS011;39397;53.204;5.778;2023-06-10T10:02:18;8.50;;;3.40;;
53519;SDS011;39397;53.204;5.778;2023-06-10T10:04:44;7.15;;;3.25;;
53519;SDS011;39397;53.204;5.778;2023-06-10T10:07:10;4.95;;;3.03;;
53519;SDS011;39397;53.204;5.778;2023-06-10T10:09:40;5.15;;;2.70;;
53519;SDS011;39397;53.204;5.778;2023-06-10T10:12:13;4.68;;;2.38;;
53519;SDS011;39397;53.204;5.778;2023-06-10T10:14:43;6.63;;;2.67;;
53519;SDS011;39397;53.204;5.778;2023-06-10T10:17:12;7.43;;;2.95;;
53519;SDS011;39397;53.204;5.778;2023-06-10T10:19:42;9.20;;;3.15;;
53519;SDS011;39397;53.204;5.778;2023-06-10T10:22:15;6.20;;;2.72;;
53519;SDS011;39397;53.204;5.778;2023-06-10T10:24:57;6.88;;;2.90;;
53519;SDS011;39397;53.204;5.778;2023-06-10T10:27:27;6.60;;;2.95;;
53519;SDS011;39397;53.204;5.778;2023-06-10T10:29:58;7.80;;;3.47;;
53519;SDS011;39397;53.204;5.778;2023-06-10T10:32:32;6.57;;;3.22;;
53519;SDS011;39397;53.204;5.778;2023-06-10T10:35:07;4.88;;;2.92;;
53519;SDS011;39397;53.204;5.778;2023-06-10T10:37:34;7.63;;;2.88;;
53519;SDS011;39397;53.204;5.778;2023-06-10T10:40:01;7.93;;;3.20;;
53519;SDS011;39397;53.204;5.778;2023-06-10T10:42:28;7.88;;;3.38;;
53519;SDS011;39397;53.204;5.778;2023-06-10T10:44:54;6.00;;;3.22;;
53519;SDS011;39397;53.204;5.778;2023-06-10T10:47:21;8.50;;;3.40;;
53519;SDS011;39397;53.204;5.778;2023-06-10T10:49:48;6.45;;;3.08;;
53519;SDS011;39397;53.204;5.778;2023-06-10T10:52:18;9.48;;;3.25;;
53519;SDS011;39397;53.204;5.778;2023-06-10T10:54:45;6.88;;;3.40;;
53519;SDS011;39397;53.204;5.778;2023-06-10T10:57:18;7.65;;;3.50;;
53519;SDS011;39397;53.204;5.778;2023-06-10T11:02:17;7.28;;;3.30;;
53519;SDS011;39397;53.204;5.778;2023-06-10T11:05:04;7.57;;;3.45;;
53519;SDS011;39397;53.204;5.778;2023-06-10T11:07:31;7.45;;;3.28;;
53519;SDS011;39397;53.204;5.778;2023-06-10T11:15:07;5.25;;;2.70;;
53519;SDS011;39397;53.204;5.778;2023-06-10T11:17:33;6.43;;;3.13;;
53519;SDS011;39397;53.204;5.778;2023-06-10T11:19:59;5.80;;;2.50;;
53519;SDS011;39397;53.204;5.778;2023-06-10T11:22:25;5.40;;;2.60;;
53519;SDS011;39397;53.204;5.778;2023-06-10T11:24:52;6.60;;;2.80;;
53519;SDS011;39397;53.204;5.778;2023-06-10T11:27:22;5.72;;;2.85;;
53519;SDS011;39397;53.204;5.778;2023-06-10T11:29:58;7.13;;;3.28;;
53519;SDS011;39397;53.204;5.778;2023-06-10T11:32:32;5.28;;;2.30;;
53519;SDS011;39397;53.204;5.778;2023-06-10T11:34:59;7.18;;;2.88;;
53519;SDS011;39397;53.204;5.778;2023-06-10T11:37:29;12.27;;;3.20;;
53519;SDS011;39397;53.204;5.778;2023-06-10T11:39:55;4.38;;;2.50;;
53519;SDS011;39397;53.204;5.778;2023-06-10T11:42:21;4.55;;;2.65;;
53519;SDS011;39397;53.204;5.778;2023-06-10T11:44:48;5.88;;;2.47;;
53519;SDS011;39397;53.204;5.778;2023-06-10T11:47:15;6.20;;;3.10;;
53519;SDS011;39397;53.204;5.778;2023-06-10T11:49:41;5.93;;;2.80;;
53519;SDS011;39397;53.204;5.778;2023-06-10T11:52:06;6.07;;;2.60;;
53519;SDS011;39397;53.204;5.778;2023-06-10T11:54:32;6.97;;;2.65;;
53519;SDS011;39397;53.204;5.778;2023-06-10T11:56:58;7.10;;;3.05;;
53519;SDS011;39397;53.204;5.778;2023-06-10T11:59:33;8.50;;;2.97;;
53519;SDS011;39397;53.204;5.778;2023-06-10T12:01:59;8.45;;;3.10;;
53519;SDS011;39397;53.204;5.778;2023-06-10T12:04:24;7.65;;;3.33;;
53519;SDS011;39397;53.204;5.778;2023-06-10T12:06:54;6.50;;;3.28;;
53519;SDS011;39397;53.204;5.778;2023-06-10T12:09:24;9.98;;;3.72;;
53519;SDS011;39397;53.204;5.778;2023-06-10T12:11:51;7.38;;;3.53;;
53519;SDS011;39397;53.204;5.778;2023-06-10T12:17:18;6.78;;;3.45;;
53519;SDS011;39397;53.204;5.778;2023-06-10T12:19:46;11.20;;;3.63;;
53519;SDS011;39397;53.204;5.778;2023-06-10T12:22:13;7.85;;;3.55;;
53519;SDS011;39397;53.204;5.778;2023-06-10T12:25:12;7.88;;;3.42;;
53519;SDS011;39397;53.204;5.778;2023-06-10T12:27:32;7.50;;;3.70;;
53519;SDS011;39397;53.204;5.778;2023-06-10T12:29:59;6.68;;;3.63;;
53519;SDS011;39397;53.204;5.778;2023-06-10T12:32:35;7.55;;;4.38;;
53519;SDS011;39397;53.204;5.778;2023-06-10T12:35:02;11.73;;;4.07;;
53519;SDS011;39397;53.204;5.778;2023-06-10T12:37:31;12.70;;;4.10;;
53519;SDS011;39397;53.204;5.778;2023-06-10T12:40:01;9.50;;;4.15;;
53519;SDS011;39397;53.204;5.778;2023-06-10T12:42:45;9.10;;;4.60;;
53519;SDS011;39397;53.204;5.778;2023-06-10T12:45:10;9.10;;;4.20;;
53519;SDS011;39397;53.204;5.778;2023-06-10T12:47:37;9.70;;;3.78;;
53519;SDS011;39397;53.204;5.778;2023-06-10T12:50:04;8.52;;;4.05;;
53519;SDS011;39397;53.204;5.778;2023-06-10T12:52:30;9.25;;;3.90;;
53519;SDS011;39397;53.204;5.778;2023-06-10T12:54:57;10.73;;;4.20;;
53519;SDS011;39397;53.204;5.778;2023-06-10T12:57:23;10.30;;;4.10;;
53519;SDS011;39397;53.204;5.778;2023-06-10T12:59:49;13.73;;;4.30;;
53519;SDS011;39397;53.204;5.778;2023-06-10T13:02:20;12.85;;;4.43;;
53519;SDS011;39397;53.204;5.778;2023-06-10T13:04:48;9.07;;;3.95;;
53519;SDS011;39397;53.204;5.778;2023-06-10T13:07:15;13.20;;;3.80;;
53519;SDS011;39397;53.204;5.778;2023-06-10T13:09:41;8.82;;;4.05;;
53519;SDS011;39397;53.204;5.778;2023-06-10T13:12:07;12.57;;;3.90;;
53519;SDS011;39397;53.204;5.778;2023-06-10T13:14:34;9.30;;;4.00;;
53519;SDS011;39397;53.204;5.778;2023-06-10T13:16:59;9.68;;;4.05;;
53519;SDS011;39397;53.204;5.778;2023-06-10T13:19:25;12.95;;;5.55;;
53519;SDS011;39397;53.204;5.778;2023-06-10T13:21:54;10.85;;;4.43;;
53519;SDS011;39397;53.204;5.778;2023-06-10T13:24:20;14.00;;;4.20;;
53519;SDS011;39397;53.204;5.778;2023-06-10T13:26:45;9.73;;;4.22;;
53519;SDS011;39397;53.204;5.778;2023-06-10T13:29:11;12.82;;;4.30;;
53519;SDS011;39397;53.204;5.778;2023-06-10T13:31:39;9.68;;;3.90;;
53519;SDS011;39397;53.204;5.778;2023-06-10T13:34:05;8.50;;;3.90;;
53519;SDS011;39397;53.204;5.778;2023-06-10T13:36:31;11.77;;;4.47;;
53519;SDS011;39397;53.204;5.778;2023-06-10T13:38:57;7.32;;;4.05;;
53519;SDS011;39397;53.204;5.778;2023-06-10T13:41:23;15.52;;;4.95;;
53519;SDS011;39397;53.204;5.778;2023-06-10T13:43:49;8.93;;;4.05;;
53519;SDS011;39397;53.204;5.778;2023-06-10T13:46:15;9.50;;;4.00;;
53519;SDS011;39397;53.204;5.778;2023-06-10T13:48:41;11.88;;;3.55;;
53519;SDS011;39397;53.204;5.778;2023-06-10T13:51:07;9.93;;;3.58;;
53519;SDS011;39397;53.204;5.778;2023-06-10T13:53:34;12.77;;;3.83;;
53519;SDS011;39397;53.204;5.778;2023-06-10T13:56:00;11.20;;;4.13;;
53519;SDS011;39397;53.204;5.778;2023-06-10T13:58:26;9.77;;;3.53;;
53519;SDS011;39397;53.204;5.778;2023-06-10T14:00:51;10.98;;;3.15;;
53519;SDS011;39397;53.204;5.778;2023-06-10T14:03:18;11.02;;;3.70;;
53519;SDS011;39397;53.204;5.778;2023-06-10T14:05:43;11.80;;;3.80;;
53519;SDS011;39397;53.204;5.778;2023-06-10T14:08:09;12.27;;;3.83;;
53519;SDS011;39397;53.204;5.778;2023-06-10T14:10:35;11.82;;;3.40;;
53519;SDS011;39397;53.204;5.778;2023-06-10T14:13:00;10.60;;;3.55;;
53519;SDS011;39397;53.204;5.778;2023-06-10T14:15:26;14.00;;;3.72;;
53519;SDS011;39397;53.204;5.778;2023-06-10T14:17:52;11.52;;;3.80;;
53519;SDS011;39397;53.204;5.778;2023-06-10T14:20:17;12.25;;;4.57;;
53519;SDS011;39397;53.204;5.778;2023-06-10T14:22:43;12.63;;;3.50;;
53519;SDS011;39397;53.204;5.778;2023-06-10T14:25:09;8.95;;;3.38;;
53519;SDS011;39397;53.204;5.778;2023-06-10T14:27:36;9.45;;;3.05;;
53519;SDS011;39397;53.204;5.778;2023-06-10T14:30:02;9.07;;;3.50;;
53519;SDS011;39397;53.204;5.778;2023-06-10T14:32:30;9.45;;;3.10;;
53519;SDS011;39397;53.204;5.778;2023-06-10T14:34:56;9.65;;;3.42;;
53519;SDS011;39397;53.204;5.778;2023-06-10T14:37:22;6.57;;;3.13;;
53519;SDS011;39397;53.204;5.778;2023-06-10T14:39:47;8.38;;;2.88;;
53519;SDS011;39397;53.204;5.778;2023-06-10T14:42:13;7.13;;;3.00;;
53519;SDS011;39397;53.204;5.778;2023-06-10T14:44:39;11.10;;;3.28;;
53519;SDS011;39397;53.204;5.778;2023-06-10T14:47:04;10.32;;;3.38;;
53519;SDS011;39397;53.204;5.778;2023-06-10T14:49:30;10.32;;;3.70;;
53519;SDS011;39397;53.204;5.778;2023-06-10T14:51:56;7.22;;;3.10;;
53519;SDS011;39397;53.204;5.778;2023-06-10T14:54:21;10.07;;;3.28;;
53519;SDS011;39397;53.204;5.778;2023-06-10T14:56:49;8.98;;;3.33;;
53519;SDS011;39397;53.204;5.778;2023-06-10T14:59:14;8.40;;;3.35;;